Fellsmere, Florida
Current Conditions -  °F | °C
As of 6:53 AM on Friday 24 Oct 2014 (Local Time) from KVRB Reporting Station
Broken Clouds Broken Clouds  
Wind Chill: 72°   Ceiling: 4000
Heat Index: 72°   Visibility: 10mi
Dew Point: 61°   Wind: 10mph
Humidity: 68%   Direction: 40°NE
Pressure: 29.92"   Gusts: NA
Location:  27.77°N, 80.6°W
Report Text: KVRB 241053Z AUTO 04009KT 10SM BKN040 22/16 A2992 RMK AO2 SLP130 T02220161
Loading
Personal Weather Stations






























Interactive Weather Map New forecast layout! Learn more

10-Day Weather Forecast

Advertisements
Track Severe Weather on mobile